createdAt,value
2023-03-31T00:00:36.948Z,10.57
2023-03-31T00:03:10.985Z,10.56
2023-03-31T00:05:48.099Z,10.32
2023-03-31T00:08:21.378Z,10.35
2023-03-31T00:10:54.490Z,10.36
2023-03-31T00:13:27.813Z,10.43
2023-03-31T00:16:04.079Z,10.39
2023-03-31T00:18:38.194Z,10.37
2023-03-31T00:21:14.826Z,10.30
2023-03-31T00:23:47.783Z,10.34
2023-03-31T00:26:22.283Z,10.48
2023-03-31T00:28:55.621Z,10.31
2023-03-31T00:31:30.651Z,10.40
2023-03-31T00:34:03.753Z,10.49
2023-03-31T00:36:45.883Z,10.38
2023-03-31T00:39:20.357Z,10.37
2023-03-31T00:41:53.256Z,10.12
2023-03-31T00:44:27.378Z,10.17
2023-03-31T00:47:07.141Z,10.14
2023-03-31T00:49:45.038Z,10.11
2023-03-31T00:52:22.559Z,10.07
2023-03-31T00:54:59.329Z,10.24
2023-03-31T00:57:37.109Z,10.28
2023-03-31T01:00:14.587Z,10.21
2023-03-31T01:02:53.396Z,10.13
2023-03-31T01:05:30.367Z,10.29
2023-03-31T01:08:05.917Z,10.22
2023-03-31T01:10:42.936Z,10.03
2023-03-31T01:13:19.100Z,10.10
2023-03-31T01:15:52.283Z,10.04
2023-03-31T01:18:28.079Z,10.11
2023-03-31T01:21:19.997Z,10.22
2023-03-31T01:24:32.252Z,10.17
2023-03-31T01:27:22.131Z,10.34
2023-03-31T01:30:21.583Z,10.13
2023-03-31T01:33:40.001Z,10.33
2023-03-31T01:36:42.738Z,10.36
2023-03-31T01:39:35.594Z,10.27
2023-03-31T01:42:16.447Z,10.25
2023-03-31T01:45:01.997Z,10.36
2023-03-31T01:47:40.763Z,10.44
2023-03-31T01:50:23.523Z,10.38
2023-03-31T01:53:04.105Z,10.38
2023-03-31T01:55:38.196Z,10.36
2023-03-31T01:58:17.990Z,10.37
2023-03-31T02:00:57.137Z,10.42
2023-03-31T02:03:34.547Z,10.53
2023-03-31T02:06:13.533Z,10.44
2023-03-31T02:08:50.735Z,10.43
2023-03-31T02:11:24.598Z,10.46
2023-03-31T02:14:02.871Z,10.40
2023-03-31T02:16:42.049Z,10.33
2023-03-31T02:19:19.181Z,10.42
2023-03-31T02:21:52.501Z,10.52
2023-03-31T02:24:28.939Z,10.45
2023-03-31T02:27:07.874Z,10.59
2023-03-31T02:29:42.763Z,10.61
2023-03-31T02:32:22.561Z,10.55
2023-03-31T02:34:56.444Z,10.56
2023-03-31T02:37:31.797Z,10.66
2023-03-31T02:40:10.515Z,10.76
2023-03-31T02:42:44.306Z,10.82
2023-03-31T02:45:45.361Z,10.77
2023-03-31T02:48:23.086Z,10.80
2023-03-31T02:51:33.487Z,10.68
2023-03-31T02:54:26.565Z,10.68
2023-03-31T02:57:28.457Z,10.68
2023-03-31T03:00:10.250Z,10.71
2023-03-31T03:03:03.863Z,10.66
2023-03-31T03:05:49.763Z,10.78
2023-03-31T03:09:08.945Z,10.62
2023-03-31T03:11:52.937Z,10.67
2023-03-31T03:14:33.083Z,10.67
2023-03-31T03:17:11.133Z,10.66
2023-03-31T03:19:45.483Z,10.74
2023-03-31T03:22:18.270Z,10.75
2023-03-31T03:24:51.670Z,10.76
2023-03-31T03:27:24.550Z,10.71
2023-03-31T03:29:57.326Z,10.67
2023-03-31T03:32:31.003Z,10.64
2023-03-31T03:35:06.735Z,10.64
2023-03-31T03:37:39.768Z,10.70
2023-03-31T03:40:13.130Z,10.54
2023-03-31T03:42:45.888Z,10.59
2023-03-31T03:45:19.052Z,10.64
2023-03-31T03:47:51.846Z,10.49
2023-03-31T03:50:26.119Z,10.53
2023-03-31T03:52:58.874Z,10.51
2023-03-31T03:55:31.861Z,10.43
2023-03-31T03:58:05.596Z,10.40
2023-03-31T04:00:38.656Z,10.37
2023-03-31T04:03:11.550Z,10.24
2023-03-31T04:05:45.730Z,10.28
2023-03-31T04:08:19.786Z,10.14
2023-03-31T04:10:52.751Z,10.13
2023-03-31T04:13:25.645Z,10.06
2023-03-31T04:15:58.584Z,10.07
2023-03-31T04:18:31.420Z,10.03
2023-03-31T04:21:05.732Z,10.04
2023-03-31T04:23:42.903Z,10.01
2023-03-31T04:26:17.333Z,10.02
2023-03-31T04:28:50.846Z,9.95
2023-03-31T04:31:26.194Z,9.99
2023-03-31T04:34:02.289Z,9.96
2023-03-31T04:36:42.610Z,10.06
2023-03-31T04:39:16.377Z,9.94
2023-03-31T04:41:49.450Z,9.96
2023-03-31T04:44:22.314Z,9.96
2023-03-31T04:46:55.459Z,10.01
2023-03-31T04:49:28.376Z,9.93
2023-03-31T04:52:03.164Z,10.00
2023-03-31T04:56:01.858Z,9.98
2023-03-31T04:58:34.939Z,10.04
2023-03-31T05:01:08.023Z,9.92
2023-03-31T05:03:41.437Z,9.97
2023-03-31T05:06:14.812Z,9.87
2023-03-31T05:08:47.583Z,9.89
2023-03-31T05:11:21.955Z,9.78
2023-03-31T05:13:54.842Z,9.77
2023-03-31T05:16:27.769Z,9.78
2023-03-31T05:19:00.730Z,9.76
2023-03-31T05:21:33.614Z,9.75
2023-03-31T05:24:06.652Z,9.72
2023-03-31T05:26:41.238Z,9.76
2023-03-31T05:29:13.971Z,9.73
2023-03-31T05:31:47.096Z,9.78
2023-03-31T05:34:20.114Z,9.79
2023-03-31T05:36:53.919Z,9.79
2023-03-31T05:39:27.344Z,9.78
2023-03-31T05:42:01.618Z,9.79
2023-03-31T05:44:34.662Z,9.69
2023-03-31T05:47:07.615Z,9.67
2023-03-31T05:49:40.658Z,9.67
2023-03-31T05:52:13.654Z,9.71
2023-03-31T05:54:46.374Z,9.83
2023-03-31T05:57:20.724Z,9.73
2023-03-31T05:59:53.726Z,9.72
2023-03-31T06:02:26.830Z,9.62
2023-03-31T06:05:10.574Z,9.60
2023-03-31T06:07:43.533Z,9.58
2023-03-31T06:10:16.590Z,9.71
2023-03-31T06:12:51.021Z,9.70
2023-03-31T06:15:23.922Z,9.68
2023-03-31T06:17:57.088Z,9.74
2023-03-31T06:20:30.215Z,9.86
2023-03-31T06:23:03.575Z,9.72
2023-03-31T06:25:50.420Z,9.70
2023-03-31T06:28:25.786Z,9.64
2023-03-31T06:31:02.906Z,9.61
2023-03-31T06:33:36.575Z,9.63
2023-03-31T06:36:10.081Z,9.70
2023-03-31T06:38:43.279Z,9.72
2023-03-31T06:41:18.419Z,9.70
2023-03-31T06:43:52.606Z,9.70
2023-03-31T06:46:26.142Z,9.77
2023-03-31T06:48:58.947Z,9.75
2023-03-31T06:51:32.759Z,9.82
2023-03-31T06:54:06.279Z,9.77
2023-03-31T06:56:39.419Z,9.89
2023-03-31T06:59:13.538Z,9.87
2023-03-31T07:01:48.872Z,9.82
2023-03-31T07:04:21.790Z,9.90
2023-03-31T07:06:54.666Z,9.87
2023-03-31T07:09:27.499Z,9.99
2023-03-31T07:12:00.402Z,9.96
2023-03-31T07:14:34.560Z,9.83
2023-03-31T07:17:07.334Z,9.87
2023-03-31T07:19:42.136Z,9.84
2023-03-31T07:22:14.999Z,9.85
2023-03-31T07:24:47.857Z,9.86
2023-03-31T07:27:20.713Z,9.92
2023-03-31T07:29:55.154Z,9.90
2023-03-31T07:32:29.119Z,9.93
2023-03-31T07:35:02.235Z,9.89
2023-03-31T07:37:36.620Z,9.91
2023-03-31T07:40:11.297Z,9.91
2023-03-31T07:42:45.960Z,9.89
2023-03-31T07:45:22.475Z,9.97
2023-03-31T07:47:56.009Z,9.92
2023-03-31T07:50:29.025Z,9.92
2023-03-31T07:53:03.646Z,9.93
2023-03-31T07:55:36.533Z,9.96
2023-03-31T07:58:11.756Z,9.96
2023-03-31T08:00:45.971Z,10.01
2023-03-31T08:03:18.967Z,9.98
2023-03-31T08:05:52.937Z,9.99
2023-03-31T08:08:25.781Z,10.07
2023-03-31T08:10:58.685Z,9.99
2023-03-31T08:13:31.637Z,9.99
2023-03-31T08:16:06.914Z,10.02
2023-03-31T08:18:39.950Z,10.20
2023-03-31T08:21:12.896Z,10.31
2023-03-31T08:23:45.714Z,10.38
2023-03-31T08:26:19.161Z,10.39
2023-03-31T08:28:52.892Z,10.46
2023-03-31T08:31:29.333Z,10.43
2023-03-31T08:34:02.881Z,10.58
2023-03-31T08:36:36.187Z,10.66
2023-03-31T08:39:09.181Z,10.69
2023-03-31T08:41:52.319Z,10.82
2023-03-31T08:44:30.705Z,10.82
2023-03-31T08:47:08.400Z,10.95
2023-03-31T08:49:46.881Z,10.90
2023-03-31T08:52:24.504Z,10.93
2023-03-31T08:55:00.790Z,11.06
2023-03-31T08:57:40.980Z,11.29
2023-03-31T09:00:16.494Z,11.55
2023-03-31T09:02:57.478Z,11.79
2023-03-31T09:05:59.536Z,12.05
2023-03-31T09:08:37.085Z,12.32
2023-03-31T09:11:22.730Z,12.74
2023-03-31T09:14:06.754Z,12.93
2023-03-31T09:16:46.447Z,13.01
2023-03-31T09:19:31.501Z,13.13
2023-03-31T09:22:07.560Z,13.43
2023-03-31T09:24:48.652Z,13.52
2023-03-31T09:27:22.298Z,13.56
2023-03-31T09:29:59.399Z,13.72
2023-03-31T09:32:33.295Z,14.06
2023-03-31T09:35:19.185Z,13.70
2023-03-31T09:37:52.825Z,13.74
2023-03-31T09:40:28.304Z,13.60
2023-03-31T09:43:03.258Z,13.50
2023-03-31T09:45:36.890Z,13.29
2023-03-31T09:48:15.936Z,13.52
2023-03-31T09:50:53.491Z,12.91
2023-03-31T09:53:33.738Z,12.41
2023-03-31T09:56:09.292Z,12.07
2023-03-31T09:58:43.624Z,11.91
2023-03-31T10:01:16.864Z,11.21
2023-03-31T10:03:53.717Z,10.65
2023-03-31T10:06:28.117Z,10.48
2023-03-31T10:09:03.528Z,10.51
2023-03-31T10:11:36.929Z,10.43
2023-03-31T10:14:15.179Z,11.17
2023-03-31T10:16:51.215Z,11.54
2023-03-31T10:19:26.675Z,11.62
2023-03-31T10:22:02.512Z,11.67
2023-03-31T10:24:40.008Z,11.71
2023-03-31T10:27:22.215Z,11.78
2023-03-31T10:29:57.506Z,11.69
2023-03-31T10:32:31.907Z,11.61
2023-03-31T10:35:08.188Z,11.52
2023-03-31T10:37:42.592Z,11.30
2023-03-31T10:40:20.771Z,11.18
2023-03-31T10:43:02.681Z,11.17
2023-03-31T10:45:38.880Z,10.88
2023-03-31T10:48:20.068Z,10.38
2023-03-31T10:50:53.856Z,9.90
2023-03-31T10:53:27.983Z,9.67
2023-03-31T10:56:12.413Z,9.50
2023-03-31T10:59:06.016Z,9.47
2023-03-31T11:01:52.041Z,9.52
2023-03-31T11:04:44.218Z,9.70
2023-03-31T11:07:37.262Z,9.60
2023-03-31T11:10:32.469Z,9.76
2023-03-31T11:13:09.062Z,9.78
2023-03-31T11:15:50.809Z,9.67
2023-03-31T11:18:38.381Z,9.51
2023-03-31T11:21:22.067Z,9.30
2023-03-31T11:24:06.481Z,9.12
2023-03-31T11:26:47.502Z,9.17
2023-03-31T11:29:33.590Z,9.08
2023-03-31T11:32:28.332Z,9.27
2023-03-31T11:35:16.524Z,9.07
2023-03-31T11:38:08.007Z,9.33
2023-03-31T11:40:50.632Z,9.69
2023-03-31T11:43:31.457Z,9.94
2023-03-31T11:46:09.781Z,9.88
2023-03-31T11:48:47.464Z,10.22
2023-03-31T11:51:26.160Z,10.40
2023-03-31T11:54:04.388Z,10.19
2023-03-31T11:56:41.144Z,10.04
2023-03-31T11:59:19.517Z,10.39
2023-03-31T12:01:59.162Z,10.32
2023-03-31T12:04:35.915Z,10.29
2023-03-31T12:07:22.529Z,10.25
2023-03-31T12:10:06.090Z,10.00
2023-03-31T12:12:45.022Z,9.94
2023-03-31T12:15:23.597Z,9.57
2023-03-31T12:18:02.093Z,9.46
2023-03-31T12:20:42.194Z,9.33
2023-03-31T12:23:19.684Z,9.26
2023-03-31T12:25:59.809Z,9.14
2023-03-31T12:28:33.776Z,9.00
2023-03-31T12:31:12.985Z,8.96
2023-03-31T12:33:52.148Z,8.98
2023-03-31T12:36:42.773Z,8.93
2023-03-31T12:39:24.580Z,9.02
2023-03-31T12:42:15.048Z,9.14
2023-03-31T12:45:01.097Z,9.18
2023-03-31T12:47:50.163Z,9.17
2023-03-31T12:50:52.291Z,9.31
2023-03-31T12:53:36.821Z,9.64
2023-03-31T12:56:09.869Z,10.04
2023-03-31T12:58:45.515Z,10.26
2023-03-31T13:01:20.260Z,10.84
2023-03-31T13:04:11.306Z,11.16
2023-03-31T13:06:56.871Z,11.36
2023-03-31T13:09:47.990Z,11.68
2023-03-31T13:12:23.559Z,12.23
2023-03-31T13:15:00.211Z,12.31
2023-03-31T13:17:36.418Z,12.49
2023-03-31T13:20:38.122Z,12.80
2023-03-31T13:23:20.573Z,12.95
2023-03-31T13:25:54.385Z,12.70
2023-03-31T13:28:34.322Z,12.91
2023-03-31T13:31:07.893Z,13.01
2023-03-31T13:33:58.124Z,13.80
2023-03-31T13:36:58.116Z,13.88
2023-03-31T13:40:08.213Z,13.74
2023-03-31T13:43:16.220Z,13.50
2023-03-31T13:46:22.580Z,13.67
2023-03-31T13:49:06.497Z,13.66
2023-03-31T13:51:51.714Z,13.42
2023-03-31T13:55:00.884Z,13.94
2023-03-31T13:58:05.408Z,14.16
2023-03-31T14:00:51.182Z,14.02
2023-03-31T14:03:49.407Z,14.43
2023-03-31T14:06:28.460Z,14.31
2023-03-31T14:09:07.585Z,14.31
2023-03-31T14:11:40.521Z,14.59
2023-03-31T14:14:15.827Z,14.60
2023-03-31T14:16:53.609Z,14.98
2023-03-31T14:19:56.351Z,14.91
2023-03-31T14:22:39.104Z,14.54
2023-03-31T14:25:21.649Z,14.64
2023-03-31T14:28:05.248Z,14.57
2023-03-31T14:30:46.886Z,14.90
2023-03-31T14:33:32.972Z,14.97
2023-03-31T14:36:15.947Z,14.88
2023-03-31T14:38:49.073Z,14.63
2023-03-31T14:41:29.585Z,15.05
2023-03-31T14:44:04.046Z,14.84
2023-03-31T14:46:39.528Z,14.87
2023-03-31T14:49:21.732Z,14.98
2023-03-31T14:51:56.224Z,14.74
2023-03-31T14:54:29.057Z,14.55
2023-03-31T14:57:04.490Z,14.95
2023-03-31T14:59:38.387Z,15.08
2023-03-31T15:02:16.477Z,14.60
2023-03-31T15:04:51.984Z,14.78
2023-03-31T15:07:27.916Z,15.14
2023-03-31T15:10:01.828Z,14.99
2023-03-31T15:12:38.236Z,15.06
2023-03-31T15:15:14.893Z,14.56
2023-03-31T15:17:49.343Z,14.68
2023-03-31T15:20:28.438Z,14.39
2023-03-31T15:23:01.503Z,14.33
2023-03-31T15:25:39.266Z,13.95
2023-03-31T15:28:17.792Z,14.02
2023-03-31T15:31:03.473Z,14.45
2023-03-31T15:33:43.204Z,14.46
2023-03-31T15:36:16.937Z,14.16
2023-03-31T15:38:57.771Z,14.31
2023-03-31T15:41:32.288Z,14.61
2023-03-31T15:44:08.749Z,14.66
2023-03-31T15:46:56.467Z,14.32
2023-03-31T15:49:30.495Z,13.94
2023-03-31T15:52:03.519Z,13.94
2023-03-31T15:54:39.247Z,14.05
2023-03-31T15:57:19.425Z,14.13
2023-03-31T15:59:57.113Z,13.86
2023-03-31T16:02:41.745Z,13.58
2023-03-31T16:05:32.404Z,13.27
2023-03-31T16:08:13.184Z,12.71
2023-03-31T16:10:46.557Z,12.73
2023-03-31T16:13:23.413Z,12.67
2023-03-31T16:15:58.851Z,12.66
2023-03-31T16:18:35.923Z,12.75
2023-03-31T16:21:10.831Z,12.50
2023-03-31T16:23:45.385Z,12.31
2023-03-31T16:26:22.604Z,12.07
2023-03-31T16:28:57.740Z,12.01
2023-03-31T16:31:37.752Z,11.90
2023-03-31T16:34:12.629Z,11.83
2023-03-31T16:36:45.485Z,11.75
2023-03-31T16:39:26.520Z,11.66
2023-03-31T16:42:00.116Z,11.79
2023-03-31T16:44:33.071Z,11.61
2023-03-31T16:47:07.251Z,11.74
2023-03-31T16:49:40.631Z,11.78
2023-03-31T16:52:13.589Z,11.73
2023-03-31T16:54:46.778Z,11.75
2023-03-31T16:57:20.903Z,11.69
2023-03-31T16:59:54.732Z,11.69
2023-03-31T17:02:36.854Z,11.62
2023-03-31T17:05:17.523Z,11.59
2023-03-31T17:07:50.425Z,11.49
2023-03-31T17:10:23.481Z,11.40
2023-03-31T17:12:56.504Z,11.30
2023-03-31T17:15:30.597Z,11.37
2023-03-31T17:18:05.381Z,11.33
2023-03-31T17:20:38.524Z,11.21
2023-03-31T17:23:12.010Z,11.16
2023-03-31T17:25:48.920Z,11.17
2023-03-31T17:28:22.372Z,11.16
2023-03-31T17:30:55.318Z,11.13
2023-03-31T17:33:29.645Z,11.16
2023-03-31T17:36:07.955Z,11.19
2023-03-31T17:38:42.170Z,11.20
2023-03-31T17:41:18.018Z,11.18
2023-03-31T17:43:51.176Z,11.12
2023-03-31T17:46:24.805Z,11.08
2023-03-31T17:48:59.603Z,11.12
2023-03-31T17:51:34.605Z,11.12
2023-03-31T17:54:07.589Z,11.13
2023-03-31T17:56:41.621Z,11.07
2023-03-31T17:59:14.332Z,11.01
2023-03-31T18:01:48.171Z,11.01
2023-03-31T18:04:22.489Z,10.95
2023-03-31T18:06:55.297Z,10.94
2023-03-31T18:09:28.178Z,10.99
2023-03-31T18:12:01.452Z,11.00
2023-03-31T18:14:34.710Z,10.99
2023-03-31T18:17:07.678Z,11.04
2023-03-31T18:19:41.976Z,11.04
2023-03-31T18:22:14.781Z,11.14
2023-03-31T18:24:47.617Z,11.02
2023-03-31T18:27:21.665Z,11.04
2023-03-31T18:29:55.871Z,11.13
2023-03-31T18:32:29.088Z,11.18
2023-03-31T18:35:03.566Z,11.16
2023-03-31T18:37:36.431Z,11.17
2023-03-31T18:40:10.923Z,11.26
2023-03-31T18:42:44.022Z,11.26
2023-03-31T18:45:17.242Z,11.15
2023-03-31T18:47:50.788Z,11.15
2023-03-31T18:50:26.057Z,11.18
2023-03-31T18:52:59.455Z,11.15
2023-03-31T18:55:32.478Z,11.04
2023-03-31T18:58:05.438Z,11.06
2023-03-31T19:00:39.717Z,10.96
2023-03-31T19:03:13.723Z,10.96
2023-03-31T19:05:48.646Z,10.91
2023-03-31T19:08:21.726Z,10.93
2023-03-31T19:11:04.237Z,10.86
2023-03-31T19:13:38.292Z,10.76
2023-03-31T19:16:11.634Z,10.68
2023-03-31T19:18:44.689Z,10.75
2023-03-31T19:21:19.744Z,10.71
2023-03-31T19:23:52.713Z,10.73
2023-03-31T19:26:28.333Z,10.68
2023-03-31T19:29:02.176Z,10.69
2023-03-31T19:31:38.460Z,10.69
2023-03-31T19:34:12.379Z,10.42
2023-03-31T19:36:46.732Z,10.24
2023-03-31T19:39:20.948Z,10.15
2023-03-31T19:41:53.740Z,10.18
2023-03-31T19:44:26.619Z,9.99
2023-03-31T19:46:59.724Z,9.92
2023-03-31T19:49:32.642Z,9.77
2023-03-31T19:52:06.923Z,9.85
2023-03-31T19:54:40.264Z,9.90
2023-03-31T19:57:13.878Z,9.80
2023-03-31T19:59:46.796Z,9.83
2023-03-31T20:02:20.479Z,9.77
2023-03-31T20:04:53.948Z,9.76
2023-03-31T20:07:28.658Z,9.73
2023-03-31T20:10:01.496Z,9.76
2023-03-31T20:12:34.709Z,9.56
2023-03-31T20:15:08.652Z,9.59
2023-03-31T20:17:41.563Z,9.56
2023-03-31T20:20:14.369Z,9.50
2023-03-31T20:22:48.724Z,9.39
2023-03-31T20:25:21.912Z,9.37
2023-03-31T20:27:54.685Z,9.44
2023-03-31T20:30:27.566Z,9.40
2023-03-31T20:33:00.734Z,9.45
2023-03-31T20:35:34.014Z,9.38
2023-03-31T20:38:08.255Z,9.39
2023-03-31T20:40:41.048Z,9.48
2023-03-31T20:43:13.951Z,9.44
2023-03-31T20:45:46.816Z,9.36
2023-03-31T20:48:19.935Z,9.46
2023-03-31T20:50:52.992Z,9.44
2023-03-31T20:53:27.257Z,9.44
2023-03-31T20:56:00.195Z,9.40
2023-03-31T20:58:33.335Z,9.42
2023-03-31T21:01:07.057Z,9.47
2023-03-31T21:03:40.359Z,9.46
2023-03-31T21:06:15.715Z,9.51
2023-03-31T21:08:54.380Z,9.54
2023-03-31T21:11:27.688Z,9.57
2023-03-31T21:14:00.595Z,9.63
2023-03-31T21:16:34.162Z,9.48
2023-03-31T21:19:07.300Z,9.40
2023-03-31T21:21:41.629Z,9.47
2023-03-31T21:24:16.423Z,9.37
2023-03-31T21:26:49.503Z,9.54
2023-03-31T21:29:22.395Z,9.55
2023-03-31T21:31:55.259Z,9.48
2023-03-31T21:34:28.155Z,9.48
2023-03-31T21:37:01.532Z,9.48
2023-03-31T21:39:36.098Z,9.49
2023-03-31T21:42:08.894Z,9.39
2023-03-31T21:44:42.465Z,9.49
2023-03-31T21:47:15.415Z,9.41
2023-03-31T21:49:48.365Z,9.49
2023-03-31T21:52:21.488Z,9.46
2023-03-31T21:54:56.317Z,9.39
2023-03-31T21:57:29.386Z,9.43
2023-03-31T22:00:02.533Z,9.39
2023-03-31T22:02:37.501Z,9.49
2023-03-31T22:05:11.050Z,9.47
2023-03-31T22:07:43.850Z,9.45
2023-03-31T22:10:18.306Z,9.39
2023-03-31T22:12:51.706Z,9.51
2023-03-31T22:15:25.147Z,9.49
2023-03-31T22:17:58.650Z,9.37
2023-03-31T22:20:32.436Z,9.39
2023-03-31T22:23:05.723Z,9.43
2023-03-31T22:25:40.260Z,9.43
2023-03-31T22:28:13.920Z,9.50
2023-03-31T22:30:47.297Z,9.47
2023-03-31T22:33:20.110Z,9.44
2023-03-31T22:35:52.943Z,9.40
2023-03-31T22:38:25.893Z,9.51
2023-03-31T22:41:00.662Z,9.50
2023-03-31T22:43:33.947Z,9.48
2023-03-31T22:46:08.334Z,9.50
2023-03-31T22:48:41.188Z,9.51
2023-03-31T22:51:14.455Z,9.68
2023-03-31T22:53:51.057Z,9.87
2023-03-31T22:56:25.952Z,9.75
2023-03-31T22:58:59.517Z,9.79
2023-03-31T23:01:32.749Z,9.81
2023-03-31T23:04:06.764Z,9.85
2023-03-31T23:06:39.915Z,9.81
2023-03-31T23:09:12.702Z,9.85
2023-03-31T23:11:47.415Z,9.90
2023-03-31T23:14:20.419Z,9.99
2023-03-31T23:16:53.242Z,9.91
2023-03-31T23:19:26.169Z,10.01
2023-03-31T23:22:02.179Z,10.09
2023-03-31T23:24:35.201Z,10.08
2023-03-31T23:27:09.599Z,10.08
2023-03-31T23:29:42.560Z,10.18
2023-03-31T23:32:15.773Z,10.14
2023-03-31T23:34:48.626Z,10.26
2023-03-31T23:37:21.431Z,10.18
2023-03-31T23:39:54.295Z,10.21
2023-03-31T23:42:28.476Z,10.13
2023-03-31T23:45:01.637Z,10.27
2023-03-31T23:47:34.805Z,10.26
2023-03-31T23:50:09.214Z,10.30
2023-03-31T23:52:42.062Z,10.29
2023-03-31T23:55:14.974Z,10.22
2023-03-31T23:57:49.312Z,10.25
